Terminal Aerodrome Forecast
Issued by NWS

Home | Current Version | Previous Version | Text Only | Print | Product List | Glossary On
Versions: 1 2 3 4 5 6 7 8 9 10 11 12 13 14 15 16 17 18 19 20 21 22 23 24 25 26 27 28 29 30 31 32
000
FTAK31 PANC 030540
TAFASD
TAF
PASD 030540Z 0306/0406 07005KT P6SM SCT020 BKN040
      TEMPO 0307/0308 BKN020
     FM030800 34004KT 5SM -SN OVC015
     FM031400 35008KT P6SM -SN SCT015 BKN030
     FM031800 35005KT P6SM SCT030 BKN050
      AMD LTD TO CLD VIS AND WIND=

USA.gov is the U.S. government's official web portal to all federal, state and local government web resources and services.